Anaconda, Montana
Current Conditions -  °F | °C
As of 8:53 PM on Saturday 20 Dec 2014 (Local Time) from KBTM Reporting Station
Overcast Overcast  
Wind Chill: -3°   Ceiling: 8000
Heat Index:   Visibility: 10mi
Dew Point: -4°   Wind: 9mph
Humidity: 67%   Direction: 180°S
Pressure: 29.72"   Gusts: NA
Location:  46.13°N, 112.94°W
Report Text: KBTM 210353Z AUTO 18008KT 10SM BKN080 OVC095 01/M04 A2972 RMK AO2 SLP095 T00111044
Loading
Personal Weather Stations






























Interactive Weather Map New forecast layout! Learn more

10-Day Weather Forecast

Advertisements
Track Severe Weather on mobile